createdAt,value
2023-02-27T00:02:25.346Z,102651.28
2023-02-27T00:04:52.271Z,102647.72
2023-02-27T00:07:18.733Z,102652.91
2023-02-27T00:09:45.161Z,102626.13
2023-02-27T00:12:12.210Z,102650.28
2023-02-27T00:14:38.831Z,102647.72
2023-02-27T00:17:05.261Z,102655.56
2023-02-27T00:19:31.814Z,102646.09
2023-02-27T00:21:58.253Z,102661.72
2023-02-27T00:24:24.738Z,102659.19
2023-02-27T00:26:51.159Z,102648.81
2023-02-27T00:29:20.334Z,102652.31
2023-02-27T00:31:46.846Z,102656.72
2023-02-27T00:34:13.500Z,102635.06
2023-02-27T00:36:40.127Z,102649.06
2023-02-27T00:39:06.671Z,102669.84
2023-02-27T00:41:33.138Z,102646.44
2023-02-27T00:43:59.626Z,102656.00
2023-02-27T00:46:26.114Z,102604.03
2023-02-27T00:48:52.865Z,102650.78
2023-02-27T00:51:20.211Z,102650.97
2023-02-27T00:53:46.711Z,102662.25
2023-02-27T00:56:13.406Z,102661.44
2023-02-27T00:58:39.838Z,102659.72
2023-02-27T01:01:06.457Z,102645.97
2023-02-27T01:03:33.056Z,102639.97
2023-02-27T01:05:59.496Z,102667.72
2023-02-27T01:08:25.952Z,102665.09
2023-02-27T01:10:55.649Z,102663.38
2023-02-27T01:13:22.632Z,102655.53
2023-02-27T01:15:49.778Z,102649.41
2023-02-27T01:18:16.220Z,102655.53
2023-02-27T01:20:43.127Z,102625.31
2023-02-27T01:23:09.534Z,102652.97
2023-02-27T01:25:35.950Z,102647.81
2023-02-27T01:28:02.374Z,102652.19
2023-02-27T01:30:28.891Z,102651.34
2023-02-27T01:32:55.380Z,102627.13
2023-02-27T01:35:21.807Z,102634.97
2023-02-27T01:37:48.259Z,102656.69
2023-02-27T01:40:14.867Z,102650.63
2023-02-27T01:42:41.356Z,102613.41
2023-02-27T01:45:27.734Z,102654.16
2023-02-27T01:48:03.912Z,102637.75
2023-02-27T01:50:31.617Z,102650.78
2023-02-27T01:53:01.350Z,102645.56
2023-02-27T01:55:32.031Z,102594.53
2023-02-27T01:58:00.162Z,102644.72
2023-02-27T02:00:27.375Z,102654.31
2023-02-27T02:03:07.863Z,102647.41
2023-02-27T02:05:34.515Z,102650.06
2023-02-27T02:08:01.328Z,102648.34
2023-02-27T02:10:29.465Z,102654.44
2023-02-27T02:12:56.588Z,102661.41
2023-02-27T02:15:29.928Z,102664.88
2023-02-27T02:18:20.066Z,102656.19
2023-02-27T02:21:12.338Z,102661.28
2023-02-27T02:24:15.483Z,102656.13
2023-02-27T02:27:03.859Z,102670.91
2023-02-27T02:29:52.000Z,102673.53
2023-02-27T02:32:41.359Z,102670.94
2023-02-27T02:35:45.498Z,102668.28
2023-02-27T02:38:24.198Z,102673.53
2023-02-27T02:41:01.437Z,102665.75
2023-02-27T02:43:38.209Z,102652.75
2023-02-27T02:46:16.424Z,102675.28
2023-02-27T02:48:58.374Z,102657.09
2023-02-27T02:51:30.537Z,102670.97
2023-02-27T02:54:04.930Z,102666.63
2023-02-27T02:56:56.855Z,102662.31
2023-02-27T02:59:32.282Z,102666.66
2023-02-27T03:02:04.737Z,102671.88
2023-02-27T03:04:40.477Z,102671.91
2023-02-27T03:07:13.817Z,102668.41
2023-02-27T03:09:49.895Z,102620.75
2023-02-27T03:12:21.463Z,102668.44
2023-02-27T03:14:59.781Z,102663.25
2023-02-27T03:17:47.239Z,102676.34
2023-02-27T03:20:24.783Z,102679.84
2023-02-27T03:22:56.812Z,102659.09
2023-02-27T03:25:27.168Z,102691.22
2023-02-27T03:28:07.372Z,102662.56
2023-02-27T03:31:00.867Z,102679.91
2023-02-27T03:33:35.127Z,102673.00
2023-02-27T03:36:21.149Z,102671.22
2023-02-27T03:39:06.642Z,102666.88
2023-02-27T03:41:37.780Z,102683.38
2023-02-27T03:44:46.463Z,102679.00
2023-02-27T03:47:15.864Z,102685.13
2023-02-27T03:49:42.363Z,102679.91
2023-02-27T03:52:09.116Z,102677.41
2023-02-27T03:54:39.654Z,102696.47
2023-02-27T03:57:08.936Z,102692.13
2023-02-27T03:59:37.957Z,102691.25
2023-02-27T04:02:04.668Z,102699.09
2023-02-27T04:04:32.790Z,102703.44
2023-02-27T04:07:24.505Z,102699.94
2023-02-27T04:10:14.995Z,102710.41
2023-02-27T04:12:59.654Z,102713.91
2023-02-27T04:15:41.160Z,102713.03
2023-02-27T04:18:29.075Z,102726.16
2023-02-27T04:21:36.993Z,102725.31
2023-02-27T04:24:32.678Z,102727.06
2023-02-27T04:27:11.887Z,102724.53
2023-02-27T04:29:57.378Z,102738.41
2023-02-27T04:32:43.374Z,102738.41
2023-02-27T04:35:20.535Z,102739.28
2023-02-27T04:38:02.398Z,102747.97
2023-02-27T04:40:39.555Z,102737.53
2023-02-27T04:43:10.277Z,102738.34
2023-02-27T04:45:41.266Z,102731.44
2023-02-27T04:48:16.699Z,102745.25
2023-02-27T04:50:51.821Z,102753.09
2023-02-27T04:53:24.474Z,102721.84
2023-02-27T04:56:04.740Z,102747.84
2023-02-27T04:58:41.997Z,102738.28
2023-02-27T05:01:14.987Z,102746.97
2023-02-27T05:03:47.642Z,102752.19
2023-02-27T05:06:17.236Z,102746.09
2023-02-27T05:08:58.949Z,102756.53
2023-02-27T05:11:43.574Z,102731.31
2023-02-27T05:14:28.412Z,102750.44
2023-02-27T05:17:03.315Z,102759.09
2023-02-27T05:19:32.405Z,102746.94
2023-02-27T05:21:58.752Z,102757.34
2023-02-27T05:24:44.455Z,102762.56
2023-02-27T05:27:25.623Z,102751.25
2023-02-27T05:29:55.649Z,102752.09
2023-02-27T05:32:27.983Z,102761.59
2023-02-27T05:35:19.878Z,102764.25
2023-02-27T05:38:09.952Z,102753.78
2023-02-27T05:40:41.537Z,102766.78
2023-02-27T05:43:16.836Z,102761.56
2023-02-27T05:45:46.871Z,102758.09
2023-02-27T05:48:25.695Z,102763.28
2023-02-27T05:50:52.934Z,102759.84
2023-02-27T05:53:22.053Z,102769.41
2023-02-27T05:55:54.397Z,102768.56
2023-02-27T05:58:32.567Z,102769.47
2023-02-27T06:01:01.972Z,102748.63
2023-02-27T06:03:31.779Z,102757.28
2023-02-27T06:06:04.945Z,102762.53
2023-02-27T06:08:31.750Z,102766.91
2023-02-27T06:10:58.372Z,102754.78
2023-02-27T06:13:26.238Z,102745.22
2023-02-27T06:15:53.304Z,102773.00
2023-02-27T06:18:20.313Z,102777.38
2023-02-27T06:20:47.316Z,102777.38
2023-02-27T06:23:13.994Z,102769.59
2023-02-27T06:25:42.338Z,102789.56
2023-02-27T06:28:10.209Z,102793.06
2023-02-27T06:30:37.066Z,102753.19
2023-02-27T06:33:04.299Z,102787.03
2023-02-27T06:35:31.073Z,102803.59
2023-02-27T06:37:57.749Z,102801.00
2023-02-27T06:40:24.456Z,102803.59
2023-02-27T06:42:51.082Z,102808.84
2023-02-27T06:45:18.021Z,102807.09
2023-02-27T06:47:44.829Z,102801.00
2023-02-27T06:50:14.311Z,102810.56
2023-02-27T06:52:41.350Z,102806.22
2023-02-27T06:55:09.334Z,102803.63
2023-02-27T06:57:36.226Z,102814.06
2023-02-27T07:00:04.347Z,102807.97
2023-02-27T07:02:32.822Z,102767.16
2023-02-27T07:04:59.344Z,102778.44
2023-02-27T07:07:33.939Z,102827.03
2023-02-27T07:10:08.989Z,102808.72
2023-02-27T07:12:35.463Z,102815.63
2023-02-27T07:15:01.911Z,102820.81
2023-02-27T07:17:28.416Z,102832.03
2023-02-27T07:19:54.826Z,102837.22
2023-02-27T07:22:21.309Z,102840.63
2023-02-27T07:24:47.757Z,102840.50
2023-02-27T07:27:14.161Z,102839.56
2023-02-27T07:29:40.564Z,102847.19
2023-02-27T07:32:07.055Z,102801.91
2023-02-27T07:34:33.493Z,102847.72
2023-02-27T07:37:00.052Z,102837.16
2023-02-27T07:39:26.492Z,102816.19
2023-02-27T07:41:52.983Z,102842.00
2023-02-27T07:44:19.526Z,102802.78
2023-02-27T07:46:47.327Z,102816.44
2023-02-27T07:49:14.077Z,102826.59
2023-02-27T07:51:40.526Z,102840.22
2023-02-27T07:54:06.980Z,102828.69
2023-02-27T07:56:33.470Z,102846.69
2023-02-27T07:58:59.931Z,102856.94
2023-02-27T08:01:26.617Z,102854.91
2023-02-27T08:03:53.094Z,102838.94
2023-02-27T08:06:19.504Z,102815.34
2023-02-27T08:11:28.394Z,102849.47
2023-02-27T08:14:00.607Z,102839.59
2023-02-27T08:16:28.536Z,102814.22
2023-02-27T08:18:55.381Z,102851.38
2023-02-27T08:21:22.167Z,102815.50
2023-02-27T08:23:48.674Z,102841.22
2023-02-27T08:26:15.318Z,102840.13
2023-02-27T08:28:41.735Z,102825.03
2023-02-27T08:31:08.258Z,102835.19
2023-02-27T08:33:34.837Z,102834.09
2023-02-27T08:36:01.790Z,102842.56
2023-02-27T08:38:28.474Z,102844.81
2023-02-27T08:40:55.219Z,102850.63
2023-02-27T08:43:23.198Z,102850.28
2023-02-27T08:45:50.333Z,102846.56
2023-02-27T08:48:18.470Z,102849.75
2023-02-27T08:50:45.291Z,102829.81
2023-02-27T08:53:12.433Z,102817.34
2023-02-27T08:55:38.883Z,102852.44
2023-02-27T08:58:05.324Z,102851.41
2023-02-27T09:00:32.813Z,102856.78
2023-02-27T09:03:00.565Z,102866.78
2023-02-27T09:05:27.778Z,102831.75
2023-02-27T09:07:54.222Z,102869.16
2023-02-27T09:10:20.632Z,102861.56
2023-02-27T09:12:49.142Z,102865.44
2023-02-27T09:15:15.709Z,102831.38
2023-02-27T09:17:42.297Z,102870.59
2023-02-27T09:20:10.651Z,102831.22
2023-02-27T09:22:37.405Z,102854.63
2023-02-27T09:25:04.341Z,102870.13
2023-02-27T09:27:30.792Z,102864.91
2023-02-27T09:29:57.381Z,102880.16
2023-02-27T09:32:24.785Z,102881.66
2023-02-27T09:34:51.649Z,102878.03
2023-02-27T09:37:21.400Z,102864.56
2023-02-27T09:39:47.873Z,102885.00
2023-02-27T09:42:28.754Z,102884.94
2023-02-27T09:45:05.502Z,102877.72
2023-02-27T09:47:42.118Z,102877.75
2023-02-27T09:50:31.545Z,102874.00
2023-02-27T09:52:59.398Z,102870.00
2023-02-27T09:55:30.254Z,102879.66
2023-02-27T09:58:31.053Z,102861.34
2023-02-27T10:01:09.395Z,102842.06
2023-02-27T10:03:57.755Z,102846.97
2023-02-27T10:06:36.994Z,102834.31
2023-02-27T10:09:42.681Z,102854.53
2023-02-27T10:12:15.329Z,102854.34
2023-02-27T10:14:52.116Z,102815.22
2023-02-27T10:17:27.800Z,102858.50
2023-02-27T10:19:55.289Z,102810.25
2023-02-27T10:22:28.602Z,102844.28
2023-02-27T10:25:02.352Z,102869.72
2023-02-27T10:27:30.842Z,102873.28
2023-02-27T10:30:27.258Z,102850.69
2023-02-27T10:33:08.887Z,102846.56
2023-02-27T10:35:38.918Z,102862.03
2023-02-27T10:38:16.711Z,102880.78
2023-02-27T10:40:45.399Z,102875.88
2023-02-27T10:43:16.356Z,102880.25
2023-02-27T10:45:43.841Z,102862.97
2023-02-27T10:48:11.882Z,102890.88
2023-02-27T10:50:44.288Z,102896.16
2023-02-27T10:53:21.736Z,102898.81
2023-02-27T10:56:02.942Z,102856.41
2023-02-27T10:58:40.674Z,102883.50
2023-02-27T11:01:10.625Z,102899.69
2023-02-27T11:03:41.458Z,102879.44
2023-02-27T11:06:30.122Z,102892.84
2023-02-27T11:09:20.998Z,102887.09
2023-02-27T11:11:47.694Z,102890.78
2023-02-27T11:14:27.986Z,102900.84
2023-02-27T11:16:55.777Z,102895.16
2023-02-27T11:19:39.024Z,102892.66
2023-02-27T11:22:20.176Z,102899.81
2023-02-27T11:24:48.182Z,102845.38
2023-02-27T11:27:22.616Z,102894.72
2023-02-27T11:30:04.782Z,102893.63
2023-02-27T11:32:48.080Z,102906.09
2023-02-27T11:35:38.881Z,102901.00
2023-02-27T11:38:19.064Z,102911.84
2023-02-27T11:40:54.242Z,102916.31
2023-02-27T11:43:25.498Z,102901.78
2023-02-27T11:46:04.602Z,102900.22
2023-02-27T11:48:47.452Z,102905.59
2023-02-27T11:51:54.864Z,102901.66
2023-02-27T11:54:32.338Z,102906.03
2023-02-27T11:57:04.652Z,102900.88
2023-02-27T11:59:31.737Z,102904.00
2023-02-27T12:02:05.340Z,102900.63
2023-02-27T12:04:50.138Z,102892.53
2023-02-27T12:07:38.624Z,102896.44
2023-02-27T12:10:10.038Z,102893.09
2023-02-27T12:12:45.652Z,102884.31
2023-02-27T12:15:51.173Z,102881.16
2023-02-27T12:18:30.461Z,102876.50
2023-02-27T12:21:06.214Z,102879.44
2023-02-27T12:23:41.551Z,102881.19
2023-02-27T12:26:17.596Z,102884.44
2023-02-27T12:29:02.228Z,102892.00
2023-02-27T12:31:32.516Z,102894.66
2023-02-27T12:34:25.927Z,102879.19
2023-02-27T12:36:53.323Z,102876.63
2023-02-27T12:39:22.905Z,102827.16
2023-02-27T12:42:15.645Z,102895.75
2023-02-27T12:45:03.510Z,102869.59
2023-02-27T12:47:32.837Z,102881.94
2023-02-27T12:50:20.638Z,102878.44
2023-02-27T12:53:14.851Z,102872.75
2023-02-27T12:55:47.269Z,102871.56
2023-02-27T12:58:16.686Z,102875.88
2023-02-27T13:00:48.074Z,102874.47
2023-02-27T13:03:22.157Z,102841.84
2023-02-27T13:06:03.388Z,102858.53
2023-02-27T13:08:55.081Z,102863.00
2023-02-27T13:11:39.621Z,102862.25
2023-02-27T13:14:11.864Z,102835.31
2023-02-27T13:16:46.035Z,102860.34
2023-02-27T13:19:23.934Z,102844.75
2023-02-27T13:22:04.070Z,102849.91
2023-02-27T13:24:32.228Z,102847.22
2023-02-27T13:27:11.749Z,102853.25
2023-02-27T13:29:41.350Z,102864.16
2023-02-27T13:32:44.238Z,102848.44
2023-02-27T13:35:32.982Z,102845.59
2023-02-27T13:38:03.474Z,102834.38
2023-02-27T13:40:39.840Z,102850.84
2023-02-27T13:43:26.213Z,102856.81
2023-02-27T13:45:55.018Z,102839.72
2023-02-27T13:48:33.414Z,102846.09
2023-02-27T13:51:01.126Z,102819.94
2023-02-27T13:53:28.893Z,102839.56
2023-02-27T13:56:00.024Z,102834.34
2023-02-27T13:58:26.583Z,102833.69
2023-02-27T14:00:59.893Z,102837.56
2023-02-27T14:03:30.475Z,102837.47
2023-02-27T14:06:01.100Z,102847.84
2023-02-27T14:08:46.654Z,102856.28
2023-02-27T14:11:20.766Z,102819.38
2023-02-27T14:13:50.221Z,102864.13
2023-02-27T14:16:39.038Z,102857.81
2023-02-27T14:19:11.175Z,102848.84
2023-02-27T14:21:52.622Z,102836.81
2023-02-27T14:24:23.428Z,102864.56
2023-02-27T14:26:52.240Z,102851.28
2023-02-27T14:29:30.848Z,102832.34
2023-02-27T14:32:00.847Z,102874.28
2023-02-27T14:34:28.482Z,102880.81
2023-02-27T14:36:59.668Z,102883.41
2023-02-27T14:39:37.214Z,102878.09
2023-02-27T14:42:06.758Z,102880.47
2023-02-27T14:44:45.500Z,102885.63
2023-02-27T14:47:23.997Z,102886.75
2023-02-27T14:49:50.430Z,102860.75
2023-02-27T14:52:29.765Z,102889.44
2023-02-27T14:55:30.179Z,102894.81
2023-02-27T14:58:14.633Z,102886.50
2023-02-27T15:00:42.546Z,102858.31
2023-02-27T15:03:17.828Z,102886.25
2023-02-27T15:05:45.499Z,102896.13
2023-02-27T15:08:34.789Z,102891.28
2023-02-27T15:11:02.482Z,102892.75
2023-02-27T15:13:32.104Z,102897.56
2023-02-27T15:16:21.684Z,102896.06
2023-02-27T15:18:52.954Z,102892.44
2023-02-27T15:21:21.972Z,102896.41
2023-02-27T15:23:57.512Z,102893.31
2023-02-27T15:26:24.992Z,102870.47
2023-02-27T15:28:51.713Z,102894.41
2023-02-27T15:31:22.577Z,102890.16
2023-02-27T15:33:50.510Z,102886.19
2023-02-27T15:36:21.827Z,102898.72
2023-02-27T15:39:19.415Z,102900.53
2023-02-27T15:41:58.980Z,102895.69
2023-02-27T15:44:42.411Z,102855.03
2023-02-27T15:47:12.922Z,102899.28
2023-02-27T15:49:39.560Z,102908.84
2023-02-27T15:52:17.314Z,102902.66
2023-02-27T15:54:51.707Z,102911.50
2023-02-27T15:57:20.728Z,102910.44
2023-02-27T15:59:47.408Z,102914.16
2023-02-27T16:02:23.326Z,102907.13
2023-02-27T16:04:50.406Z,102908.19
2023-02-27T16:07:22.943Z,102913.38
2023-02-27T16:10:06.241Z,102899.28
2023-02-27T16:12:37.119Z,102908.28
2023-02-27T16:15:24.526Z,102905.75
2023-02-27T16:17:54.508Z,102892.88
2023-02-27T16:20:30.424Z,102900.38
2023-02-27T16:23:16.002Z,102893.75
2023-02-27T16:25:58.971Z,102899.34
2023-02-27T16:28:31.551Z,102897.00
2023-02-27T16:30:58.211Z,102909.72
2023-02-27T16:33:30.269Z,102913.47
2023-02-27T16:36:19.706Z,102874.59
2023-02-27T16:38:46.626Z,102903.44
2023-02-27T16:41:17.193Z,102902.72
2023-02-27T16:43:46.157Z,102876.25
2023-02-27T16:46:19.925Z,102888.28
2023-02-27T16:49:00.735Z,102890.41
2023-02-27T16:51:34.583Z,102905.88
2023-02-27T16:54:01.083Z,102897.44
2023-02-27T16:56:37.660Z,102891.69
2023-02-27T16:59:04.413Z,102892.16
2023-02-27T17:01:33.005Z,102859.50
2023-02-27T17:04:00.478Z,102890.66
2023-02-27T17:06:27.478Z,102891.72
2023-02-27T17:08:56.285Z,102886.06
2023-02-27T17:11:22.805Z,102861.75
2023-02-27T17:13:49.244Z,102851.69
2023-02-27T17:16:15.949Z,102868.16
2023-02-27T17:18:42.437Z,102887.25
2023-02-27T17:21:08.936Z,102881.13
2023-02-27T17:23:35.335Z,102867.50
2023-02-27T17:26:01.752Z,102879.78
2023-02-27T17:28:31.275Z,102869.69
2023-02-27T17:30:58.002Z,102890.38
2023-02-27T17:33:24.449Z,102888.72
2023-02-27T17:35:52.878Z,102897.69
2023-02-27T17:38:19.348Z,102894.22
2023-02-27T17:40:45.864Z,102905.75
2023-02-27T17:43:12.396Z,102892.63
2023-02-27T17:45:38.908Z,102875.41
2023-02-27T17:48:05.621Z,102898.09
2023-02-27T17:50:32.417Z,102894.75
2023-02-27T17:52:58.832Z,102890.25
2023-02-27T17:55:25.338Z,102863.59
2023-02-27T17:57:51.950Z,102880.81
2023-02-27T18:00:18.799Z,102882.53
2023-02-27T18:02:45.410Z,102895.69
2023-02-27T18:05:12.083Z,102831.03
2023-02-27T18:07:38.945Z,102888.25
2023-02-27T18:10:06.966Z,102878.59
2023-02-27T18:12:33.955Z,102882.91
2023-02-27T18:15:00.962Z,102900.41
2023-02-27T18:17:27.988Z,102899.69
2023-02-27T18:19:54.475Z,102904.91
2023-02-27T18:22:22.047Z,102897.88
2023-02-27T18:24:49.384Z,102904.97
2023-02-27T18:27:15.823Z,102897.22
2023-02-27T18:29:43.744Z,102913.94
2023-02-27T18:32:10.502Z,102899.13
2023-02-27T18:34:38.902Z,102900.97
2023-02-27T18:37:05.285Z,102899.13
2023-02-27T18:39:31.730Z,102922.63
2023-02-27T18:41:58.490Z,102914.78
2023-02-27T18:44:25.089Z,102923.44
2023-02-27T18:46:51.635Z,102918.88
2023-02-27T18:49:18.056Z,102925.13
2023-02-27T18:51:44.450Z,102911.09
2023-02-27T18:54:13.524Z,102914.84
2023-02-27T18:56:40.631Z,102891.22
2023-02-27T18:59:07.592Z,102929.25
2023-02-27T19:01:36.934Z,102911.84
2023-02-27T19:04:05.894Z,102926.41
2023-02-27T19:06:34.605Z,102914.00
2023-02-27T19:09:01.235Z,102919.63
2023-02-27T19:11:33.798Z,102938.69
2023-02-27T19:14:02.593Z,102937.72
2023-02-27T19:16:30.615Z,102930.78
2023-02-27T19:18:58.849Z,102936.81
2023-02-27T19:21:26.824Z,102926.59
2023-02-27T19:23:53.765Z,102911.09
2023-02-27T19:26:21.500Z,102940.25
2023-02-27T19:28:53.809Z,102940.13
2023-02-27T19:31:22.389Z,102934.94
2023-02-27T19:33:49.082Z,102917.03
2023-02-27T19:36:18.202Z,102941.91
2023-02-27T19:38:44.678Z,102910.94
2023-02-27T19:41:13.974Z,102943.72
2023-02-27T19:43:41.315Z,102931.66
2023-02-27T19:46:10.960Z,102938.34
2023-02-27T19:48:38.317Z,102953.28
2023-02-27T19:51:07.142Z,102941.88
2023-02-27T19:53:35.820Z,102943.66
2023-02-27T19:56:04.836Z,102941.78
2023-02-27T19:58:31.758Z,102947.16
2023-02-27T20:01:00.773Z,102944.50
2023-02-27T20:03:29.090Z,102949.88
2023-02-27T20:05:56.462Z,102937.59
2023-02-27T20:08:23.360Z,102945.50
2023-02-27T20:11:08.135Z,102931.59
2023-02-27T20:13:34.612Z,102947.41
2023-02-27T20:16:08.051Z,102943.13
2023-02-27T20:18:36.076Z,102905.22
2023-02-27T20:21:04.052Z,102934.97
2023-02-27T20:23:31.698Z,102942.53
2023-02-27T20:25:58.602Z,102947.81
2023-02-27T20:28:25.199Z,102952.38
2023-02-27T20:30:52.173Z,102956.03
2023-02-27T20:33:18.900Z,102946.63
2023-02-27T20:35:45.749Z,102951.88
2023-02-27T20:38:12.416Z,102941.63
2023-02-27T20:40:38.784Z,102933.88
2023-02-27T20:43:05.359Z,102935.44
2023-02-27T20:45:31.835Z,102914.88
2023-02-27T20:47:58.497Z,102945.06
2023-02-27T20:50:24.887Z,102950.66
2023-02-27T20:52:54.009Z,102952.28
2023-02-27T20:55:20.722Z,102900.53
2023-02-27T20:57:47.246Z,102945.34
2023-02-27T21:00:15.804Z,102946.69
2023-02-27T21:02:42.423Z,102933.81
2023-02-27T21:05:09.210Z,102931.41
2023-02-27T21:07:35.955Z,102928.75
2023-02-27T21:10:02.470Z,102915.81
2023-02-27T21:12:28.969Z,102937.22
2023-02-27T21:14:56.008Z,102938.63
2023-02-27T21:17:24.846Z,102959.59
2023-02-27T21:19:51.796Z,102951.63
2023-02-27T21:22:18.194Z,102942.19
2023-02-27T21:24:46.465Z,102948.13
2023-02-27T21:27:12.922Z,102907.38
2023-02-27T21:29:39.314Z,102917.00
2023-02-27T21:32:07.118Z,102959.72
2023-02-27T21:34:33.586Z,102924.88
2023-02-27T21:37:02.544Z,102931.06
2023-02-27T21:39:29.118Z,102936.88
2023-02-27T21:41:55.563Z,102950.78
2023-02-27T21:44:26.179Z,102941.94
2023-02-27T21:46:55.794Z,102942.81
2023-02-27T21:49:28.391Z,102943.75
2023-02-27T21:51:55.479Z,102935.09
2023-02-27T21:54:22.579Z,102940.34
2023-02-27T21:56:49.551Z,102923.84
2023-02-27T21:59:17.283Z,102925.94
2023-02-27T22:01:47.451Z,102929.44
2023-02-27T22:04:14.432Z,102956.06
2023-02-27T22:06:40.914Z,102892.41
2023-02-27T22:09:07.941Z,102938.09
2023-02-27T22:11:35.128Z,102930.38
2023-02-27T22:14:03.593Z,102933.75
2023-02-27T22:16:30.072Z,102907.13
2023-02-27T22:18:57.625Z,102943.44
2023-02-27T22:21:25.968Z,102946.16
2023-02-27T22:23:52.854Z,102949.72
2023-02-27T22:26:23.952Z,102948.00
2023-02-27T22:28:52.132Z,102954.09
2023-02-27T22:31:23.318Z,102926.97
2023-02-27T22:33:52.561Z,102954.97
2023-02-27T22:36:21.818Z,102935.72
2023-02-27T22:38:48.630Z,102947.03
2023-02-27T22:41:26.214Z,102921.94
2023-02-27T22:43:53.045Z,102902.22
2023-02-27T22:46:31.747Z,102939.19
2023-02-27T22:49:03.078Z,102953.13
2023-02-27T22:51:31.046Z,102953.19
2023-02-27T22:53:59.889Z,102917.84
2023-02-27T22:56:26.415Z,102953.19
2023-02-27T22:58:53.313Z,102964.47
2023-02-27T23:01:25.386Z,102970.56
2023-02-27T23:03:53.465Z,102968.75
2023-02-27T23:06:23.626Z,102968.81
2023-02-27T23:08:50.057Z,102968.75
2023-02-27T23:11:18.050Z,102967.97
2023-02-27T23:13:44.712Z,102938.66
2023-02-27T23:16:13.536Z,102961.06
2023-02-27T23:18:48.419Z,102967.25
2023-02-27T23:21:20.897Z,102968.06
2023-02-27T23:23:47.751Z,102970.72
2023-02-27T23:26:14.282Z,102968.91
2023-02-27T23:28:41.407Z,102976.00
2023-02-27T23:31:09.246Z,102950.16
2023-02-27T23:33:35.723Z,102951.16
2023-02-27T23:36:02.742Z,102950.34
2023-02-27T23:38:29.718Z,102984.94
2023-02-27T23:40:56.589Z,102977.91
2023-02-27T23:43:42.368Z,102979.69
2023-02-27T23:46:11.249Z,102969.16
2023-02-27T23:48:38.028Z,102969.25
2023-02-27T23:51:06.204Z,102973.72
2023-02-27T23:53:33.776Z,102972.84
2023-02-27T23:56:00.279Z,102975.69
2023-02-27T23:58:26.780Z,102968.66
